Weather observations for the past three days for
King Airport, St. Thomas
Metric (Imperial)
Date Time (ast) Wind (kph) Vis. (km) Weather Sky Cond. Temperature (ºC) Relative Humidity Wind Chill (°C) Heat Index (°C) Pressure Precipitation (cm)
Air Dwpt 6 hour altimeter (cm) sea level (mb) 1 hr 3 hr 6 hr
Max. Min.
07 18:53 E 13 16.09 Fair CLR 28 22 70% 31 76.15 0.0
07 17:53 NE 17 16.09 A Few Clouds FEW030 29 22 66% 32 76.1 0.0
07 16:53 E 17 G 33 16.09 Partly Cloudy SCT022 29 22 66% 32 76.07 0.0
07 15:53 SE 22 16.09 Partly Cloudy SCT030 29 23 70% 33 76.1 0.0
07 14:53 SE 22 16.09 Partly Cloudy SCT030 30 23.3 67% 34 76.12 1015.0
07 13:53 SE 24 16.09 Partly Cloudy SCT040 31 23 62% 35 76.17 0.0
07 12:53 SE 22 16.09 Partly Cloudy SCT038 31 23 62% 35 76.23 0.0
07 11:53 SE 24 16.09 Partly Cloudy SCT030 31 23 62% 35 76.28 0.0
07 10:53 SE 28 16.09 Partly Cloudy SCT030 30 23 66% 34 76.3 0.0
07 09:53 SE 26 16.09 Partly Cloudy SCT030 29 23 70% 33 76.3 0.0
07 07:53 E 13 16.09 Partly Cloudy SCT030 28 23 74% 31 76.25 0.0
07 06:53 E 17 16.09 Fair CLR 27.8 22.8 74% 31 76.23 1016.2
07 05:53 E 11 16.09 Fair CLR 27 23 79% 30 76.2 0.0
07 04:53 E 15 16.09 Fair CLR 26.7 22.8 79% 29 76.17 1015.7
07 03:53 E 13 16.09 Fair CLR 27 23 79% 30 76.17 0.0
07 02:53 E 17 16.09 Fair CLR 27 23 79% 30 76.2 0.0
07 01:53 E 17 16.09 Mostly Cloudy BKN090 27 22 74% 29 76.25 0.0
07 00:53 E 13 16.09 A Few Clouds FEW055 27 23 79% 30 76.33 0.0
06 23:53 E 11 16.09 Fair CLR 27 23 79% 30 76.35 0.0
06 22:53 E 15 16.09 Fair CLR 27.8 23.3 77% 31 76.38 1018.1
06 21:53 E 13 16.09 Fair CLR 27.8 22.8 74% 31 76.38 1018.2
06 20:53 E 13 16.09 Fair CLR 28 23 74% 31 76.33 0.0
06 19:53 E 19 16.09 A Few Clouds FEW023 28 23 74% 31 76.28 0.0
06 18:53 SE 19 16.09 Fair CLR 28.3 22.8 72% 32 76.23 1016.4
06 17:53 SE 19 16.09 Fair CLR 29 23 70% 33 76.2 0.0
06 16:53 SE 20 16.09 Fair CLR 30 23.3 67% 34 76.17 1015.7
06 15:53 SE 20 16.09 Fair CLR 31 23 62% 35 76.2 0.0
06 14:53 SE 20 16.09 A Few Clouds FEW030 32 23 59% 37 76.2 0.0
06 13:53 SE 22 16.09 A Few Clouds FEW030 31 23 62% 35 76.28 0.0
06 12:53 SE 20 16.09 A Few Clouds FEW030 31 23 62% 35 76.33 0.0
06 11:53 SE 20 16.09 Partly Cloudy SCT030 31 23 62% 35 76.38 0.0
06 10:53 SE 22 16.09 Partly Cloudy SCT030 31 23 62% 35 76.4 0.0
06 09:53 SE 22 16.09 Partly Cloudy SCT025 30 23 66% 34 76.4 0.0
06 08:53 SE 20 16.09 Partly Cloudy SCT022 30 23 66% 34 76.38 0.0
06 07:53 SE 20 16.09 Partly Cloudy SCT022 29 23 70% 33 76.35 0.0
06 06:53 E 15 16.09 Partly Cloudy SCT022 28 23 74% 31 76.33 0.0
06 04:53 E 11 16.09 A Few Clouds FEW029 27 23 79% 30 76.25 0.0
06 03:53 E 11 16.09 A Few Clouds FEW021 27 23 79% 30 76.25 0.0
06 01:53 E 15 16.09 Mostly Cloudy FEW020 BKN050 27.2 22.8 28.3 27.2 77% 30 76.28 1016.8
06 00:53 E 20 16.09 Partly Cloudy SCT050 28 23 74% 31 76.28 0.0
05 23:53 E 9 16.09 Partly Cloudy SCT050 27 23 79% 30 76.3 0.0
05 22:53 E 9 16.09 A Few Clouds FEW022 27.8 23.3 77% 31 76.33 1017.7
05 21:53 E 11 16.09 Fair CLR 27.8 23.3 77% 31 76.33 1017.6
05 20:53 SE 15 16.09 A Few Clouds FEW020 28 23 74% 31 76.3 0.0
05 19:53 SE 15 16.09 Overcast FEW023 OVC060 28 23 74% 31 76.3 0.0
05 18:53 SE 13 16.09 A Few Clouds FEW024 28.9 22.8 70% 32 76.25 1016.6
05 17:53 SE 20 16.09 A Few Clouds FEW020 29 23 70% 33 76.2 0.0
05 16:53 SE 17 16.09 Fair CLR 30 23 66% 34 76.2 0.0
05 15:53 SE 15 16.09 Partly Cloudy SCT030 30 23 66% 34 76.2 0.0
05 14:53 SE 22 16.09 Partly Cloudy SCT022 31 24 66% 37 76.2 0.0
05 13:53 SE 24 16.09 Partly Cloudy SCT030 31 24 66% 37 76.25 0.0
05 12:53 SE 24 16.09 Partly Cloudy SCT030 30 24.4 72% 36 76.28 1017.1
05 11:53 SE 24 16.09 Partly Cloudy SCT022 30 24 70% 35 76.33 0.0
05 10:53 SE 22 16.09 Mostly Cloudy BKN060 BKN070 30 24 70% 35 76.33 0.0
05 09:53 SE 20 G 37 16.09 Partly Cloudy SCT025 30.6 24.4 70% 36 76.3 1017.4
05 08:53 SE 24 G 39 16.09 Overcast SCT020 OVC060 29 24 74% 34 76.3 0.0
05 07:53 SE 20 16.09 Mostly Cloudy SCT020 BKN060 29 24 74% 34 76.28 0.0
05 06:53 SE 19 16.09 Partly Cloudy SCT020 SCT025 SCT055 28.3 23.9 77% 32 76.2 1016.0
05 05:53 NE 9 16.09 Partly Cloudy SCT018 26.7 23.9 85% 29 76.2 1015.8
05 04:53 E 13 16.09 Overcast SCT018 BKN023 OVC055 27.2 25 88% 31 76.15 1015.3
05 03:53 SE 9 16.09 Mostly Cloudy FEW016 SCT023 BKN055 27 24 84% 30 76.12 0.0
05 02:53 E 9 16.09 A Few Clouds FEW018 27 23 79% 30 76.12 0.0
05 01:53 E 9 16.09 Fair CLR 27 24 84% 30 76.17 0.0
05 00:53 E 13 16.09 Fair CLR 27.2 23.3 79% 30 76.2 1015.8
04 23:53 E 11 16.09 Fair CLR 27 23 79% 30 76.25 0.0
04 22:53 E 13 16.09 A Few Clouds FEW021 27.8 23.9 79% 32 76.25 1016.7
04 21:53 E 11 16.09 A Few Clouds FEW020 FEW026 28 24 79% 32 76.25 0.0
04 20:53 E 15 16.09 Fair CLR 28 23 74% 31 76.2 0.0
Date Time (ast) Wind (kph) Vis. (km) Weather Sky Cond. Air Dwpt Max. Min. Relative Humidity Wind Chill (°C) Heat Index (°C) altimeter (cm) sea level (mb) 1 hr 3 hr 6 hr
6 hour
Temperature (ºC) Pressure Precipitation (cm)